sim
Sign-in with your pilot id or email,
or register
Callsign
Passwort

Schedule Details

Flight Number: RYR1878 (1)
Departure: Memmingen Airport (EDJA) at 13:25
Arrival: Thessaloniki International Airport (LGTS) at 15:35
Route: Ryanair Passenger Schedule. Enter filed route here before submitting Pirep.

Weather Information
Getting current METAR information for EDJA 211120Z 23008KT CAVOK 10/02 Q1028
Getting current METAR information for LGTS 211120Z 33019KT CAVOK 16/M01 Q1023 NOSIG

Schedule Frequency

Route Map